Time;durP1;ratioP1;P1;durP2;ratioP2;P2;SDS_P1;SDS_P2;PMS_P1;PMS_P2;Temp;Humidity;BMP_temperature;BMP_pressure;BME280_temperature;BME280_humidity;BME280_pressure;Samples;Min_cycle;Max_cycle;Signal;HPM_P1;HPM_P2
2023/08/26 00:00:51;;;;;;;26.90;18.27;;;17.30;99.90;;;;;;5068655;28;20040;-79
2023/08/26 00:03:16;;;;;;;22.17;16.75;;;17.60;99.90;;;;;;5051523;28;20361;-79
2023/08/26 00:05:43;;;;;;;22.38;16.15;;;17.20;99.90;;;;;;5066765;28;20051;-79
2023/08/26 00:08:09;;;;;;;23.58;15.90;;;17.50;99.90;;;;;;5066163;28;20048;-79
2023/08/26 00:10:34;;;;;;;22.02;15.38;;;17.40;99.90;;;;;;5066339;28;20100;-79
2023/08/26 00:13:00;;;;;;;25.98;14.60;;;17.20;99.90;;;;;;5066139;28;20139;-79
2023/08/26 00:15:25;;;;;;;23.83;16.33;;;17.40;99.90;;;;;;5064806;28;20033;-79
2023/08/26 00:17:51;;;;;;;22.60;14.70;;;17.30;99.90;;;;;;5064582;28;20098;-79
2023/08/26 00:20:16;;;;;;;21.20;14.05;;;17.50;99.90;;;;;;5063886;28;20083;-79
2023/08/26 00:22:42;;;;;;;21.95;13.43;;;17.30;99.90;;;;;;5047399;28;20051;-79
2023/08/26 00:25:09;;;;;;;19.45;12.75;;;17.40;99.90;;;;;;5062333;28;20036;-79
2023/08/26 00:27:34;;;;;;;19.92;12.43;;;17.20;99.90;;;;;;5061957;28;20123;-79
2023/08/26 00:30:00;;;;;;;20.50;13.52;;;17.40;99.90;;;;;;5045996;28;20076;-79
2023/08/26 00:32:25;;;;;;;18.73;12.32;;;17.10;99.90;;;;;;5064065;28;20044;-79
2023/08/26 00:34:51;;;;;;;21.45;13.45;;;17.20;99.90;;;;;;5065328;28;20515;-79
2023/08/26 00:37:17;;;;;;;19.45;13.65;;;17.10;99.90;;;;;;5063766;28;20565;-79
2023/08/26 00:39:42;;;;;;;18.27;11.82;;;16.90;99.90;;;;;;5063887;28;20086;-78
2023/08/26 00:42:08;;;;;;;19.02;13.43;;;17.20;99.90;;;;;;5063558;28;20070;-79
2023/08/26 00:44:33;;;;;;;19.80;13.30;;;16.80;99.90;;;;;;5061324;28;20036;-79
2023/08/26 00:47:00;;;;;;;21.67;14.02;;;17.10;99.90;;;;;;5043212;28;20044;-79
2023/08/26 00:49:26;;;;;;;20.33;13.20;;;16.80;99.90;;;;;;5060200;28;20041;-79
2023/08/26 00:51:52;;;;;;;21.60;13.13;;;16.90;99.90;;;;;;5059589;28;20123;-79
2023/08/26 00:54:18;;;;;;;22.42;14.00;;;17.00;99.90;;;;;;5059468;28;20534;-78
2023/08/26 00:56:43;;;;;;;23.23;14.43;;;16.90;99.90;;;;;;5058326;28;20036;-79
2023/08/26 00:59:10;;;;;;;20.92;14.20;;;16.90;99.90;;;;;;5043466;28;20032;-79
2023/08/26 01:01:36;;;;;;;22.00;14.15;;;16.70;99.90;;;;;;5059153;28;20449;-79
2023/08/26 01:04:02;;;;;;;20.35;13.30;;;17.00;99.90;;;;;;5059300;28;20052;-78
2023/08/26 01:06:28;;;;;;;21.98;14.82;;;16.80;99.90;;;;;;5058596;28;20503;-79
2023/08/26 01:08:54;;;;;;;21.92;15.18;;;16.90;99.90;;;;;;5058204;28;20040;-79
2023/08/26 01:11:22;;;;;;;23.13;14.60;;;16.70;99.90;;;;;;5041660;28;20086;-79
2023/08/26 01:14:07;;;;;;;22.25;14.15;;;16.60;99.90;;;;;;5058669;28;20037;-79
2023/08/26 01:16:34;;;;;;;21.80;13.45;;;16.80;99.90;;;;;;5058133;28;20138;-79
2023/08/26 01:19:01;;;;;;;21.00;13.20;;;16.50;99.90;;;;;;5057915;28;20036;-79
2023/08/26 01:21:35;;;;;;;17.85;12.77;;;16.80;99.90;;;;;;5058601;28;20050;-79
2023/08/26 01:24:01;;;;;;;17.70;11.52;;;16.70;99.90;;;;;;5064572;28;20064;-79
2023/08/26 01:26:27;;;;;;;17.63;12.18;;;16.70;99.90;;;;;;5050836;28;20116;-79
2023/08/26 01:28:52;;;;;;;18.33;10.98;;;16.60;99.90;;;;;;5067778;28;20040;-78
2023/08/26 01:31:20;;;;;;;17.67;11.65;;;16.50;99.90;;;;;;5067273;28;20040;-79
2023/08/26 01:33:58;;;;;;;17.00;11.90;;;16.30;99.90;;;;;;5049365;28;20044;-78
2023/08/26 01:36:25;;;;;;;14.25;10.23;;;16.60;99.90;;;;;;5065101;28;20403;-78
2023/08/26 01:38:55;;;;;;;17.25;10.10;;;16.50;99.90;;;;;;5066180;28;20037;-79
2023/08/26 01:41:22;;;;;;;14.00;9.57;;;16.20;99.90;;;;;;5065082;28;20106;-78
2023/08/26 01:43:49;;;;;;;12.63;9.10;;;16.20;99.90;;;;;;5082466;28;20041;-79
2023/08/26 01:46:15;;;;;;;14.07;9.40;;;16.40;99.90;;;;;;5063515;28;20529;-79
2023/08/26 01:48:41;;;;;;;13.40;9.55;;;16.20;99.90;;;;;;5045671;28;20455;-78
2023/08/26 01:51:06;;;;;;;13.27;8.80;;;16.40;99.90;;;;;;5055665;28;20044;-78
2023/08/26 01:53:33;;;;;;;16.27;10.30;;;16.10;99.90;;;;;;5040908;28;20083;-79
2023/08/26 01:55:58;;;;;;;11.27;8.18;;;16.00;99.90;;;;;;5024500;28;20040;-79
2023/08/26 01:58:24;;;;;;;14.50;9.77;;;16.10;99.90;;;;;;5042015;28;20040;-79
2023/08/26 02:00:49;;;;;;;14.30;9.32;;;16.00;99.90;;;;;;5040160;28;20504;-78
2023/08/26 02:03:15;;;;;;;11.55;8.43;;;16.20;99.90;;;;;;5039783;28;20041;-79
2023/08/26 02:05:40;;;;;;;14.38;8.15;;;16.10;99.90;;;;;;5022945;28;20037;-78
2023/08/26 02:08:06;;;;;;;13.35;8.45;;;16.10;99.90;;;;;;5039197;28;20099;-78
2023/08/26 02:10:31;;;;;;;15.18;9.35;;;15.90;99.90;;;;;;5026196;28;20041;-78
2023/08/26 02:12:57;;;;;;;11.75;8.35;;;15.80;99.90;;;;;;5043576;28;20040;-78
2023/08/26 02:15:22;;;;;;;10.77;7.93;;;16.00;99.90;;;;;;5045859;28;20041;-78
2023/08/26 02:17:48;;;;;;;12.40;8.43;;;15.70;99.90;;;;;;5050953;28;20508;-78
2023/08/26 02:20:14;;;;;;;15.18;8.43;;;15.80;99.90;;;;;;5050800;28;20385;-78
2023/08/26 02:22:39;;;;;;;13.13;8.70;;;16.00;99.90;;;;;;5050424;28;20048;-78
2023/08/26 02:25:05;;;;;;;11.95;8.13;;;15.80;99.90;;;;;;5032121;28;20044;-78
2023/08/26 02:27:31;;;;;;;9.93;6.82;;;15.60;99.90;;;;;;5049433;28;20045;-78
2023/08/26 02:29:57;;;;;;;12.93;6.85;;;15.60;99.90;;;;;;5050600;28;20032;-79
2023/08/26 02:32:23;;;;;;;12.35;7.97;;;15.70;99.90;;;;;;5051016;28;20045;-79
2023/08/26 02:34:49;;;;;;;11.98;7.68;;;15.60;99.90;;;;;;5050689;28;20033;-78
2023/08/26 02:37:14;;;;;;;13.15;8.15;;;15.70;99.90;;;;;;5032870;28;20037;-78
2023/08/26 02:39:40;;;;;;;11.75;6.57;;;15.50;99.90;;;;;;5049132;28;20091;-78
2023/08/26 02:42:06;;;;;;;11.40;7.43;;;15.50;99.90;;;;;;5048289;28;20068;-78
2023/08/26 02:44:31;;;;;;;9.75;6.95;;;15.40;99.90;;;;;;5032138;28;20041;-78
2023/08/26 02:46:57;;;;;;;8.38;6.45;;;15.60;99.90;;;;;;5031608;28;20048;-79
2023/08/26 02:49:22;;;;;;;12.07;7.40;;;15.60;99.90;;;;;;5046982;28;20033;-78
2023/08/26 02:51:48;;;;;;;9.98;6.95;;;15.50;99.90;;;;;;5076552;28;20146;-78
2023/08/26 02:54:13;;;;;;;9.93;7.22;;;15.40;99.90;;;;;;5091096;28;20032;-78
2023/08/26 02:56:39;;;;;;;14.07;7.55;;;15.30;99.90;;;;;;5109383;28;20074;-78
2023/08/26 02:59:04;;;;;;;10.40;7.45;;;15.50;99.90;;;;;;5090094;28;20506;-78
2023/08/26 03:01:30;;;;;;;9.10;6.93;;;15.50;99.90;;;;;;5107970;28;20535;-79
2023/08/26 03:03:57;;;;;;;11.55;6.50;;;15.20;99.90;;;;;;5088484;28;20040;-79
2023/08/26 03:06:23;;;;;;;10.35;6.90;;;15.30;99.90;;;;;;5087413;28;20032;-78
2023/08/26 03:08:48;;;;;;;13.73;8.05;;;15.20;99.90;;;;;;5086791;28;20039;-78
2023/08/26 03:11:14;;;;;;;9.50;7.05;;;15.50;99.90;;;;;;5085285;28;20056;-78
2023/08/26 03:13:39;;;;;;;12.40;6.70;;;15.40;99.90;;;;;;5085468;28;20036;-78
2023/08/26 03:16:07;;;;;;;11.93;7.80;;;15.30;99.90;;;;;;5085274;28;20036;-78
2023/08/26 03:18:33;;;;;;;13.52;7.03;;;15.10;99.90;;;;;;5084217;28;20040;-78
2023/08/26 03:21:06;;;;;;;12.82;7.50;;;15.10;99.90;;;;;;5084496;28;20048;-78
2023/08/26 03:23:32;;;;;;;12.77;7.78;;;15.10;99.90;;;;;;5102861;28;20083;-78
2023/08/26 03:25:58;;;;;;;10.07;7.00;;;15.20;99.90;;;;;;5083858;28;20403;-78
2023/08/26 03:28:23;;;;;;;9.57;6.55;;;15.10;99.90;;;;;;5082778;28;20040;-79
2023/08/26 03:30:49;;;;;;;11.77;7.18;;;15.10;99.90;;;;;;5082641;28;20122;-78
2023/08/26 03:33:14;;;;;;;10.07;6.78;;;15.30;99.90;;;;;;5082207;28;20040;-79
2023/08/26 03:35:40;;;;;;;10.35;7.13;;;15.10;99.90;;;;;;5065979;28;20035;-78
2023/08/26 03:38:07;;;;;;;9.15;6.20;;;15.10;99.90;;;;;;5064962;28;20040;-78
2023/08/26 03:40:33;;;;;;;10.63;6.45;;;15.30;99.90;;;;;;5081809;28;20389;-78
2023/08/26 03:43:01;;;;;;;9.27;6.53;;;15.20;99.90;;;;;;5081436;28;20040;-78
2023/08/26 03:45:29;;;;;;;11.75;6.85;;;15.10;99.90;;;;;;5065415;28;20043;-78
2023/08/26 03:47:55;;;;;;;11.32;6.45;;;15.30;99.90;;;;;;5063449;28;20123;-78
2023/08/26 03:50:20;;;;;;;9.32;6.38;;;15.10;99.90;;;;;;5081361;28;20086;-79
2023/08/26 03:52:46;;;;;;;10.57;6.82;;;15.00;99.90;;;;;;5081425;28;20043;-79
2023/08/26 03:55:12;;;;;;;12.38;7.35;;;15.00;99.90;;;;;;5080030;28;20051;-79
2023/08/26 03:57:37;;;;;;;14.38;7.20;;;15.10;99.90;;;;;;5080120;28;20047;-79
2023/08/26 04:00:04;;;;;;;10.02;7.05;;;15.10;99.90;;;;;;5080575;28;20426;-79
2023/08/26 04:02:29;;;;;;;12.80;7.30;;;15.10;99.90;;;;;;5079656;28;20119;-79
2023/08/26 04:04:55;;;;;;;8.23;7.00;;;14.90;99.90;;;;;;5098170;28;20067;-78
2023/08/26 04:07:20;;;;;;;11.68;6.97;;;14.90;99.90;;;;;;5079772;28;20043;-78
2023/08/26 04:09:46;;;;;;;13.48;7.95;;;15.00;99.90;;;;;;5079493;28;20078;-79
2023/08/26 04:12:13;;;;;;;8.38;6.63;;;15.00;99.90;;;;;;5080143;28;20039;-78
2023/08/26 04:14:38;;;;;;;11.25;7.75;;;15.10;99.90;;;;;;5079224;28;20533;-79
2023/08/26 04:17:04;;;;;;;9.23;6.75;;;15.10;99.90;;;;;;5062864;28;20044;-79
2023/08/26 04:19:30;;;;;;;9.13;6.47;;;15.10;99.90;;;;;;5079640;28;20040;-79
2023/08/26 04:21:59;;;;;;;10.80;6.60;;;15.10;99.90;;;;;;5065418;28;20044;-79
2023/08/26 04:24:24;;;;;;;9.50;6.55;;;14.90;99.90;;;;;;5080727;28;20400;-78
2023/08/26 04:26:50;;;;;;;8.52;6.07;;;14.90;99.90;;;;;;5071586;28;20066;-79
2023/08/26 04:29:15;;;;;;;8.00;6.40;;;15.10;99.90;;;;;;5069657;28;20085;-78
2023/08/26 04:31:41;;;;;;;8.85;6.47;;;15.00;99.90;;;;;;5085468;28;20075;-79
2023/08/26 04:34:06;;;;;;;9.77;6.65;;;14.90;99.90;;;;;;5087021;28;20032;-79
2023/08/26 04:36:32;;;;;;;9.57;6.40;;;15.00;99.90;;;;;;5071080;28;20047;-78
2023/08/26 04:38:57;;;;;;;9.88;6.05;;;14.80;99.90;;;;;;5086686;28;20062;-78
2023/08/26 04:41:23;;;;;;;9.55;6.65;;;14.80;99.90;;;;;;5085390;28;20119;-79
2023/08/26 04:43:52;;;;;;;7.97;6.28;;;15.00;99.90;;;;;;5069526;28;20039;-79
2023/08/26 04:46:19;;;;;;;10.30;6.60;;;14.80;99.90;;;;;;5084658;28;20126;-78
2023/08/26 04:48:44;;;;;;;9.88;6.95;;;14.90;99.90;;;;;;5068262;28;20109;-78
2023/08/26 04:51:10;;;;;;;10.13;6.68;;;14.80;99.90;;;;;;5083373;28;20036;-79
2023/08/26 04:53:36;;;;;;;9.43;6.00;;;14.90;99.90;;;;;;5083521;28;20032;-78
2023/08/26 04:56:02;;;;;;;11.70;6.35;;;14.80;99.90;;;;;;5083729;28;20051;-79
2023/08/26 04:58:29;;;;;;;9.05;6.82;;;15.00;99.90;;;;;;5066508;28;20078;-79
2023/08/26 05:00:54;;;;;;;10.05;7.15;;;14.80;99.90;;;;;;5081776;28;20043;-78
2023/08/26 05:03:20;;;;;;;9.90;6.53;;;14.80;99.90;;;;;;5081813;28;20542;-78
2023/08/26 05:05:45;;;;;;;10.55;6.55;;;14.80;99.90;;;;;;5080281;28;20515;-78
2023/08/26 05:08:11;;;;;;;10.57;6.97;;;14.90;99.90;;;;;;5081284;28;20048;-78
2023/08/26 05:10:37;;;;;;;8.85;6.60;;;14.90;99.90;;;;;;5080881;28;20035;-78
2023/08/26 05:13:03;;;;;;;11.43;7.10;;;15.10;99.90;;;;;;5086095;28;20091;-78
2023/08/26 05:15:29;;;;;;;10.77;7.50;;;15.20;99.90;;;;;;5074530;28;20058;-78
2023/08/26 05:17:55;;;;;;;13.15;7.60;;;15.10;99.90;;;;;;5094658;28;20103;-78
2023/08/26 05:20:20;;;;;;;11.35;8.38;;;15.30;99.90;;;;;;5076211;28;20036;-79
2023/08/26 05:22:46;;;;;;;11.68;7.78;;;15.50;99.90;;;;;;5090746;28;20044;-78
2023/08/26 05:25:12;;;;;;;10.18;7.40;;;15.40;99.90;;;;;;5090679;28;20043;-79
2023/08/26 05:27:37;;;;;;;14.82;8.15;;;15.60;99.90;;;;;;5088836;28;20040;-79
2023/08/26 05:30:04;;;;;;;13.48;7.43;;;15.40;99.90;;;;;;5088549;28;20051;-79
2023/08/26 05:32:30;;;;;;;11.15;7.68;;;15.40;99.90;;;;;;5071888;28;20059;-78
2023/08/26 05:34:55;;;;;;;10.43;7.55;;;15.50;99.90;;;;;;5087952;28;20036;-78
2023/08/26 05:37:21;;;;;;;9.80;7.40;;;15.40;99.90;;;;;;5085486;28;20044;-77
2023/08/26 05:39:47;;;;;;;8.82;6.97;;;15.40;99.90;;;;;;5076211;28;20415;-78
2023/08/26 05:42:12;;;;;;;10.75;6.90;;;15.50;99.90;;;;;;5059777;28;20054;-77
2023/08/26 05:44:38;;;;;;;8.93;6.93;;;15.70;99.90;;;;;;5078961;28;20053;-77
2023/08/26 05:47:04;;;;;;;9.55;6.95;;;15.50;99.90;;;;;;5082839;28;20414;-78
2023/08/26 05:49:30;;;;;;;12.52;8.00;;;15.70;99.90;;;;;;5082363;28;20036;-77
2023/08/26 05:51:55;;;;;;;11.15;7.30;;;15.60;99.90;;;;;;5080119;28;20039;-78
2023/08/26 05:54:21;;;;;;;12.90;6.65;;;15.80;99.90;;;;;;5080352;28;20036;-78
2023/08/26 05:56:47;;;;;;;9.30;6.28;;;15.70;99.90;;;;;;5064846;28;20036;-78
2023/08/26 05:59:12;;;;;;;12.63;6.07;;;15.50;99.90;;;;;;5087469;28;20036;-78
2023/08/26 06:01:38;;;;;;;8.13;6.05;;;15.70;99.90;;;;;;5083249;28;20036;-78
2023/08/26 06:04:03;;;;;;;7.60;5.85;;;15.50;99.90;;;;;;5081034;28;20059;-78
2023/08/26 06:06:29;;;;;;;9.38;5.68;;;15.60;99.90;;;;;;5082925;28;20069;-78
2023/08/26 06:08:55;;;;;;;9.60;4.65;;;15.60;99.90;;;;;;5083098;28;20044;-78
2023/08/26 06:11:20;;;;;;;9.43;5.68;;;15.80;99.90;;;;;;5063099;28;20040;-78
2023/08/26 06:13:46;;;;;;;9.77;6.20;;;15.60;99.90;;;;;;5081208;28;20032;-77
2023/08/26 06:16:11;;;;;;;8.38;5.82;;;15.70;99.90;;;;;;5081478;28;20032;-78
2023/08/26 06:18:37;;;;;;;7.28;5.10;;;15.90;99.90;;;;;;5063013;28;20066;-79
2023/08/26 06:21:02;;;;;;;7.85;5.15;;;16.00;99.90;;;;;;5085777;28;20036;-79
2023/08/26 06:23:29;;;;;;;9.27;5.82;;;15.80;99.90;;;;;;5085839;28;20048;-79
2023/08/26 06:25:56;;;;;;;8.70;5.65;;;15.90;99.90;;;;;;5098149;28;20044;-80
2023/08/26 06:28:23;;;;;;;8.57;5.70;;;16.00;99.90;;;;;;5081256;28;20048;-80
2023/08/26 06:30:49;;;;;;;8.13;6.65;;;15.80;99.90;;;;;;5089407;28;20143;-78
2023/08/26 06:33:14;;;;;;;9.80;6.13;;;15.70;99.90;;;;;;5092298;28;20063;-78
2023/08/26 06:35:40;;;;;;;8.13;5.97;;;15.70;99.90;;;;;;5082805;28;20039;-76
2023/08/26 06:38:07;;;;;;;7.55;6.00;;;15.70;99.90;;;;;;5080769;28;20089;-79
2023/08/26 06:40:34;;;;;;;7.07;5.70;;;15.90;99.90;;;;;;5091469;28;20135;-79
2023/08/26 06:43:02;;;;;;;11.05;6.78;;;15.70;99.90;;;;;;5091962;28;20585;-78
2023/08/26 06:45:28;;;;;;;10.13;6.40;;;15.70;99.90;;;;;;5089121;28;20028;-78
2023/08/26 06:47:54;;;;;;;10.00;6.18;;;15.80;99.90;;;;;;5068248;28;20047;-78
2023/08/26 06:50:20;;;;;;;10.73;6.78;;;15.90;99.90;;;;;;5069469;28;20065;-78
2023/08/26 06:52:46;;;;;;;10.52;5.97;;;15.60;99.90;;;;;;5088282;28;20040;-78
2023/08/26 06:55:11;;;;;;;10.18;6.10;;;15.70;99.90;;;;;;5084765;28;20471;-78
2023/08/26 06:57:37;;;;;;;13.55;6.75;;;15.80;99.90;;;;;;5070008;28;20044;-78
2023/08/26 07:00:05;;;;;;;10.05;6.70;;;15.80;99.90;;;;;;5083088;28;20040;-78
2023/08/26 07:02:30;;;;;;;9.90;6.18;;;16.00;99.90;;;;;;5079716;28;20558;-77
2023/08/26 07:04:56;;;;;;;9.48;6.93;;;16.00;99.90;;;;;;5078660;28;20114;-77
2023/08/26 07:07:22;;;;;;;10.77;7.07;;;16.10;99.90;;;;;;5067094;28;20047;-78
2023/08/26 07:09:48;;;;;;;7.10;6.30;;;15.90;99.90;;;;;;5081962;28;20047;-78
2023/08/26 07:12:14;;;;;;;7.15;5.72;;;16.10;99.90;;;;;;5079470;28;20403;-77
2023/08/26 07:14:40;;;;;;;9.70;6.63;;;16.00;99.90;;;;;;5076902;28;20040;-77
2023/08/26 07:17:06;;;;;;;7.57;5.65;;;16.10;99.90;;;;;;5078169;28;20205;-77
2023/08/26 07:19:31;;;;;;;12.85;6.15;;;16.00;99.90;;;;;;5065433;28;20040;-77
2023/08/26 07:21:57;;;;;;;8.95;6.50;;;16.00;99.90;;;;;;5076451;28;20043;-77
2023/08/26 07:24:22;;;;;;;9.30;6.30;;;16.30;99.90;;;;;;5078902;28;20047;-77
2023/08/26 07:26:48;;;;;;;9.90;7.57;;;16.00;99.90;;;;;;5080576;28;20503;-77
2023/08/26 07:29:13;;;;;;;11.68;7.28;;;16.40;99.90;;;;;;5062998;28;20040;-77
2023/08/26 07:31:40;;;;;;;11.27;7.57;;;16.50;99.90;;;;;;5095050;28;20040;-77
2023/08/26 07:34:05;;;;;;;13.13;8.38;;;16.50;99.90;;;;;;5077918;28;20411;-77
2023/08/26 07:36:31;;;;;;;12.32;9.25;;;16.40;99.90;;;;;;5079430;28;20051;-78
2023/08/26 07:38:56;;;;;;;15.18;9.00;;;16.50;99.90;;;;;;5099291;28;20036;-78
2023/08/26 07:41:22;;;;;;;21.42;12.88;;;16.50;99.90;;;;;;5096127;28;20043;-78
2023/08/26 07:43:47;;;;;;;19.15;13.10;;;16.80;99.90;;;;;;5079456;28;20047;-78
2023/08/26 07:46:14;;;;;;;20.92;13.43;;;16.70;99.90;;;;;;5077091;28;20043;-78
2023/08/26 07:48:40;;;;;;;22.67;15.75;;;16.70;99.90;;;;;;5060217;28;20044;-78
2023/08/26 07:51:05;;;;;;;25.98;17.83;;;16.60;99.90;;;;;;5095296;28;20032;-77
2023/08/26 07:53:31;;;;;;;27.45;17.38;;;16.90;99.90;;;;;;5081074;28;20079;-77
2023/08/26 07:55:57;;;;;;;28.85;19.30;;;17.20;99.90;;;;;;5076146;28;20036;-77
2023/08/26 07:58:22;;;;;;;27.70;17.73;;;17.30;99.90;;;;;;5080484;28;20044;-78
2023/08/26 08:00:48;;;;;;;26.80;18.10;;;17.60;99.90;;;;;;5082296;28;20061;-79
2023/08/26 08:03:13;;;;;;;25.73;19.08;;;17.80;99.90;;;;;;5081530;28;20079;-78
2023/08/26 08:05:39;;;;;;;37.25;25.95;;;17.40;99.90;;;;;;5079666;28;20051;-78
2023/08/26 08:08:04;;;;;;;26.15;18.88;;;17.30;99.90;;;;;;5083281;28;20032;-78
2023/08/26 08:10:30;;;;;;;25.73;17.85;;;17.40;99.90;;;;;;5080932;28;20100;-78
2023/08/26 08:12:55;;;;;;;28.67;18.50;;;17.60;99.90;;;;;;5078387;28;20058;-77
2023/08/26 08:15:21;;;;;;;28.52;18.02;;;17.50;99.90;;;;;;5083681;28;20039;-78
2023/08/26 08:17:46;;;;;;;27.13;18.05;;;17.50;99.90;;;;;;5080371;28;20032;-78
2023/08/26 08:20:12;;;;;;;28.70;20.52;;;17.60;99.90;;;;;;5075946;28;20048;-78
2023/08/26 08:22:41;;;;;;;26.83;19.13;;;17.60;99.90;;;;;;5077289;28;20119;-77
2023/08/26 08:25:07;;;;;;;26.67;18.98;;;17.80;99.90;;;;;;5084547;28;20039;-79
2023/08/26 08:27:34;;;;;;;23.05;18.67;;;18.00;99.90;;;;;;5085206;28;20127;-78
2023/08/26 08:30:00;;;;;;;22.90;17.25;;;18.40;99.90;;;;;;5066088;28;20483;-78
2023/08/26 08:32:26;;;;;;;21.67;17.15;;;18.50;99.90;;;;;;5084918;28;20040;-78
2023/08/26 08:34:52;;;;;;;25.02;18.80;;;18.80;99.90;;;;;;5083937;28;20040;-79
2023/08/26 08:37:18;;;;;;;23.92;17.67;;;19.40;99.90;;;;;;5086379;28;20499;-79
2023/08/26 08:39:44;;;;;;;22.75;16.50;;;19.40;99.90;;;;;;5084820;28;20090;-79
2023/08/26 08:42:10;;;;;;;23.75;16.75;;;19.20;99.90;;;;;;5052554;28;20033;-79
2023/08/26 08:44:43;;;;;;;21.42;16.85;;;18.60;99.90;;;;;;5043429;28;20072;-78
2023/08/26 08:47:09;;;;;;;21.00;16.73;;;18.70;99.90;;;;;;5045608;28;20068;-78
2023/08/26 08:49:36;;;;;;;20.42;15.43;;;19.00;99.90;;;;;;5053241;28;20127;-78
2023/08/26 08:52:03;;;;;;;19.17;15.18;;;19.40;99.90;;;;;;5050538;28;20123;-76
2023/08/26 08:54:34;;;;;;;21.48;15.68;;;19.60;99.90;;;;;;5050559;28;20045;-76
2023/08/26 08:57:03;;;;;;;22.67;15.65;;;19.80;99.90;;;;;;5034068;28;20119;-76
2023/08/26 08:59:32;;;;;;;17.75;14.02;;;19.40;99.90;;;;;;5050613;28;20505;-76
2023/08/26 09:01:58;;;;;;;19.75;14.73;;;19.50;99.90;;;;;;5054514;28;20044;-77
2023/08/26 09:04:28;;;;;;;18.15;13.48;;;19.60;99.90;;;;;;5051421;28;20072;-73
2023/08/26 09:06:54;;;;;;;17.63;13.93;;;19.00;99.90;;;;;;5051320;28;20052;-71
2023/08/26 09:09:20;;;;;;;18.67;11.95;;;19.10;99.90;;;;;;5051855;28;20045;-74
2023/08/26 09:11:47;;;;;;;13.93;11.02;;;18.80;99.90;;;;;;5051042;28;20033;-74
2023/08/26 09:14:13;;;;;;;11.98;10.38;;;18.90;99.90;;;;;;5050124;28;20041;-74
2023/08/26 09:16:40;;;;;;;14.77;10.73;;;19.30;99.90;;;;;;5048790;28;20067;-74
2023/08/26 09:19:07;;;;;;;15.23;11.48;;;19.70;99.90;;;;;;5050865;28;20044;-74
2023/08/26 09:21:32;;;;;;;16.20;9.55;;;19.60;99.90;;;;;;5050368;28;20477;-73
2023/08/26 09:23:59;;;;;;;12.45;9.43;;;19.90;99.90;;;;;;5051743;28;20124;-74
2023/08/26 09:26:24;;;;;;;14.57;9.77;;;19.80;99.90;;;;;;5050219;28;20052;-74
2023/08/26 09:28:51;;;;;;;15.23;10.10;;;20.20;99.90;;;;;;5051292;28;20041;-74
2023/08/26 09:31:18;;;;;;;14.52;10.40;;;19.80;99.90;;;;;;5051516;28;20037;-74
2023/08/26 09:34:10;;;;;;;12.93;10.02;;;19.90;99.90;;;;;;5050482;28;20045;-74
2023/08/26 09:36:40;;;;;;;17.02;9.90;;;20.00;99.90;;;;;;5047560;28;20049;-74
2023/08/26 09:39:13;;;;;;;19.10;10.68;;;19.80;99.90;;;;;;5051127;28;20044;-74
2023/08/26 09:41:41;;;;;;;13.50;8.68;;;19.80;99.90;;;;;;5051437;28;20048;-74
2023/08/26 09:44:10;;;;;;;12.68;9.95;;;19.70;99.90;;;;;;5051440;28;20056;-74
2023/08/26 09:46:36;;;;;;;15.35;9.50;;;20.00;99.90;;;;;;5051191;28;20090;-74
2023/08/26 09:49:03;;;;;;;14.57;9.38;;;20.00;99.90;;;;;;5051250;28;20037;-74
2023/08/26 09:51:29;;;;;;;14.95;9.45;;;19.90;99.90;;;;;;5060478;28;20056;-73
2023/08/26 09:53:56;;;;;;;10.98;7.95;;;20.00;99.90;;;;;;5071413;28;20047;-73
2023/08/26 09:56:24;;;;;;;10.07;8.43;;;20.00;99.90;;;;;;5071240;28;20473;-74
2023/08/26 09:58:51;;;;;;;12.77;8.40;;;19.80;99.90;;;;;;5071043;28;20047;-73
2023/08/26 10:01:21;;;;;;;16.90;7.95;;;20.00;99.90;;;;;;5071043;28;20045;-74
2023/08/26 10:03:52;;;;;;;10.85;7.93;;;20.10;99.90;;;;;;5071360;28;20036;-74
2023/08/26 10:06:22;;;;;;;12.15;7.63;;;20.20;99.90;;;;;;5071285;28;20040;-72
2023/08/26 10:08:55;;;;;;;11.07;8.20;;;20.20;99.90;;;;;;5070872;28;20396;-72
2023/08/26 10:11:23;;;;;;;9.98;8.38;;;20.10;99.90;;;;;;5071185;28;20043;-73
2023/08/26 10:13:53;;;;;;;10.85;9.40;;;20.20;99.90;;;;;;5053105;28;20029;-72
2023/08/26 10:16:23;;;;;;;12.55;8.90;;;20.60;99.90;;;;;;5071027;28;20527;-72
2023/08/26 10:18:54;;;;;;;11.02;8.18;;;20.50;99.90;;;;;;5052926;28;20048;-72
2023/08/26 10:21:21;;;;;;;14.38;8.25;;;20.80;99.90;;;;;;5071048;28;20076;-72
2023/08/26 10:23:50;;;;;;;10.70;8.00;;;20.50;99.90;;;;;;5070961;28;20404;-72
2023/08/26 10:26:18;;;;;;;13.35;6.78;;;20.40;99.90;;;;;;5052914;28;20036;-72
2023/08/26 10:28:44;;;;;;;11.55;6.55;;;20.60;99.90;;;;;;5070549;28;20561;-72
2023/08/26 10:31:13;;;;;;;7.78;6.40;;;20.60;99.90;;;;;;5074339;28;20045;-72
2023/08/26 10:34:07;;;;;;;10.75;7.28;;;20.60;99.90;;;;;;5074670;28;20089;-72
2023/08/26 10:36:33;;;;;;;;;;;20.30;99.90;;;;;;5074883;28;20051;-72
2023/08/26 10:38:59;;;;;;;11.13;6.30;;;20.20;99.90;;;;;;5074434;28;20303;-73
2023/08/26 10:41:26;;;;;;;11.63;6.22;;;20.10;99.90;;;;;;5074261;28;20060;-72
2023/08/26 10:43:53;;;;;;;5.30;4.10;;;20.20;99.90;;;;;;5074415;28;20040;-73
2023/08/26 10:46:30;;;;;;;3.75;1.23;;;19.80;99.90;;;;;;5074220;28;20033;-72
2023/08/26 10:48:57;;;;;;;3.95;1.25;;;19.30;99.90;;;;;;5073899;28;20412;-72
2023/08/26 10:51:23;;;;;;;2.83;1.30;;;18.90;99.90;;;;;;5081444;22;20040;-69
2023/08/26 10:53:49;;;;;;;3.45;1.60;;;18.40;99.90;;;;;;5094632;28;20043;-68
2023/08/26 10:56:20;;;;;;;4.70;1.42;;;17.90;99.90;;;;;;5094510;28;20412;-68
2023/08/26 10:58:48;;;;;;;5.35;1.25;;;17.70;99.90;;;;;;5076198;28;20407;-69
2023/08/26 11:01:15;;;;;;;5.47;1.80;;;17.60;99.90;;;;;;5076267;28;20047;-69
2023/08/26 11:03:42;;;;;;;3.67;1.73;;;17.40;99.90;;;;;;5094116;28;20043;-69
2023/08/26 11:06:08;;;;;;;3.88;1.67;;;17.30;99.90;;;;;;5094340;28;20067;-69
2023/08/26 11:08:40;;;;;;;2.42;1.70;;;17.00;99.90;;;;;;5093908;28;20511;-69
2023/08/26 11:11:11;;;;;;;3.83;1.27;;;17.30;99.90;;;;;;5076227;28;20101;-67
2023/08/26 11:13:39;;;;;;;3.70;1.67;;;17.20;99.90;;;;;;5075854;28;20036;-68
2023/08/26 11:16:05;;;;;;;3.63;1.58;;;17.50;99.90;;;;;;5075948;28;20487;-69
2023/08/26 11:18:31;;;;;;;2.42;1.50;;;17.70;99.90;;;;;;5093875;28;20039;-68
2023/08/26 11:21:04;;;;;;;3.03;1.52;;;17.60;99.90;;;;;;5093969;28;20036;-69
2023/08/26 11:23:30;;;;;;;2.30;1.33;;;17.50;99.90;;;;;;5093737;28;20414;-69
2023/08/26 11:25:56;;;;;;;5.88;1.90;;;17.60;99.90;;;;;;5093450;28;20076;-68
2023/08/26 11:28:21;;;;;;;3.53;1.92;;;17.70;99.90;;;;;;5075147;28;20094;-68
2023/08/26 11:30:48;;;;;;;3.15;2.15;;;17.90;99.90;;;;;;5093480;28;20032;-68
2023/08/26 11:33:15;;;;;;;3.78;2.25;;;17.90;99.90;;;;;;5093678;28;20093;-68
2023/08/26 11:35:42;;;;;;;3.85;2.95;;;17.60;99.90;;;;;;5093640;28;20040;-68
2023/08/26 11:38:07;;;;;;;3.15;2.83;;;18.00;99.90;;;;;;5075280;28;20040;-69
2023/08/26 11:40:34;;;;;;;3.28;2.72;;;17.60;99.90;;;;;;5075163;28;20399;-69
2023/08/26 11:43:10;;;;;;;7.15;3.33;;;17.90;99.90;;;;;;5093261;28;20503;-69
2023/08/26 11:45:38;;;;;;;5.22;2.85;;;17.60;99.90;;;;;;5093544;28;20068;-69
2023/08/26 11:48:04;;;;;;;3.42;3.03;;;17.80;99.90;;;;;;5074819;28;20051;-68
2023/08/26 11:50:33;;;;;;;4.80;3.13;;;17.60;99.90;;;;;;5075448;28;20036;-69
2023/08/26 11:53:03;;;;;;;4.03;3.15;;;18.10;99.90;;;;;;5093055;28;20108;-69
2023/08/26 11:55:30;;;;;;;4.82;3.10;;;18.00;99.90;;;;;;5074942;28;20155;-70
2023/08/26 11:57:57;;;;;;;4.93;3.40;;;18.00;99.90;;;;;;5092959;28;20051;-70
2023/08/26 12:00:23;;;;;;;4.20;3.60;;;17.90;99.90;;;;;;5074870;28;20079;-70
2023/08/26 12:02:55;;;;;;;5.85;4.13;;;17.70;99.90;;;;;;5093099;28;20044;-69
2023/08/26 12:05:20;;;;;;;9.07;3.83;;;17.90;99.90;;;;;;5093094;28;20036;-69
2023/08/26 12:07:51;;;;;;;8.35;4.00;;;18.10;99.90;;;;;;5092459;28;20066;-68
2023/08/26 12:10:17;;;;;;;7.88;5.20;;;18.00;99.90;;;;;;5092731;28;20478;-70
2023/08/26 12:12:46;;;;;;;12.88;6.53;;;18.00;99.90;;;;;;5092796;28;20036;-70
2023/08/26 12:15:16;;;;;;;10.13;6.47;;;17.60;99.90;;;;;;5058190;28;20039;-69
2023/08/26 12:17:55;;;;;;;10.43;6.55;;;17.70;99.90;;;;;;5092780;28;20079;-69
2023/08/26 12:20:28;;;;;;;9.50;6.47;;;17.50;99.90;;;;;;5092636;28;20495;-69
2023/08/26 12:22:54;;;;;;;;;;;17.20;99.90;;;;;;5058024;28;20044;-70
2023/08/26 12:25:24;;;;;;;10.77;6.80;;;17.30;99.90;;;;;;5092808;28;19931;-68
2023/08/26 12:27:50;;;;;;;10.30;7.55;;;17.60;99.90;;;;;;5092404;28;20048;-69
2023/08/26 12:30:16;;;;;;;13.68;6.88;;;17.70;99.90;;;;;;5074477;28;20453;-69
2023/08/26 12:32:42;;;;;;;9.60;7.65;;;17.40;99.90;;;;;;5092403;28;20039;-69
2023/08/26 12:35:08;;;;;;;10.52;7.00;;;18.10;99.90;;;;;;5092393;28;20032;-69